createdAt,value
2023-02-23T00:01:23.076Z,20.20
2023-02-23T00:03:30.234Z,20.20
2023-02-23T00:05:40.512Z,20.20
2023-02-23T00:07:48.047Z,20.30
2023-02-23T00:09:56.202Z,20.30
2023-02-23T00:12:08.584Z,20.30
2023-02-23T00:14:15.940Z,20.40
2023-02-23T00:16:24.952Z,20.40
2023-02-23T00:18:32.146Z,20.40
2023-02-23T00:20:46.348Z,20.50
2023-02-23T00:22:54.757Z,20.50
2023-02-23T00:25:02.455Z,20.60
2023-02-23T00:27:11.064Z,20.60
2023-02-23T00:29:19.991Z,20.70
2023-02-23T00:31:28.853Z,20.70
2023-02-23T00:33:37.218Z,20.80
2023-02-23T00:35:46.349Z,20.80
2023-02-23T00:37:53.332Z,20.90
2023-02-23T00:40:00.766Z,20.90
2023-02-23T00:42:08.660Z,20.90
2023-02-23T00:44:16.660Z,20.90
2023-02-23T00:46:25.075Z,21.00
2023-02-23T00:48:32.408Z,21.00
2023-02-23T00:50:42.609Z,21.00
2023-02-23T00:52:51.840Z,21.00
2023-02-23T00:54:58.975Z,21.10
2023-02-23T00:57:06.361Z,21.10
2023-02-23T00:59:13.747Z,21.10
2023-02-23T01:01:22.048Z,21.20
2023-02-23T01:03:31.029Z,21.20
2023-02-23T01:05:39.090Z,21.30
2023-02-23T01:07:47.739Z,21.30
2023-02-23T01:09:56.868Z,21.40
2023-02-23T01:12:08.348Z,21.50
2023-02-23T01:14:15.271Z,21.60
2023-02-23T01:16:24.245Z,21.60
2023-02-23T01:18:31.205Z,21.60
2023-02-23T01:20:42.665Z,21.70
2023-02-23T01:22:52.606Z,21.80
2023-02-23T01:25:01.681Z,21.80
2023-02-23T01:27:08.701Z,21.90
2023-02-23T01:29:18.174Z,21.90
2023-02-23T01:31:25.845Z,22.00
2023-02-23T01:33:33.116Z,22.00
2023-02-23T01:35:40.859Z,22.10
2023-02-23T01:37:48.451Z,22.20
2023-02-23T01:39:55.529Z,22.30
2023-02-23T01:42:06.398Z,22.30
2023-02-23T01:44:51.470Z,22.40
2023-02-23T01:46:59.430Z,22.40
2023-02-23T01:49:07.115Z,22.40
2023-02-23T01:51:17.023Z,22.50
2023-02-23T01:53:25.213Z,22.50
2023-02-23T01:55:33.576Z,22.60
2023-02-23T01:57:42.750Z,22.60
2023-02-23T01:59:51.877Z,22.70
2023-02-23T02:02:01.669Z,22.70
2023-02-23T02:04:09.157Z,22.70
2023-02-23T02:06:18.798Z,22.80
2023-02-23T02:08:27.771Z,22.90
2023-02-23T02:10:46.935Z,23.00
2023-02-23T02:13:00.008Z,23.00
2023-02-23T02:15:09.642Z,23.10
2023-02-23T02:17:31.160Z,23.20
2023-02-23T02:20:14.755Z,23.20
2023-02-23T02:22:49.217Z,23.30
2023-02-23T02:25:34.646Z,23.40
2023-02-23T02:28:10.449Z,23.40
2023-02-23T02:30:46.637Z,23.50
2023-02-23T02:33:33.068Z,23.60
2023-02-23T02:36:18.798Z,23.70
2023-02-23T02:38:51.783Z,23.90
2023-02-23T02:41:05.210Z,24.00
2023-02-23T02:43:19.975Z,24.20
2023-02-23T02:45:31.762Z,24.20
2023-02-23T02:47:42.065Z,24.20
2023-02-23T02:49:53.705Z,24.30
2023-02-23T02:52:09.030Z,24.30
2023-02-23T02:54:26.449Z,24.40
2023-02-23T02:56:34.605Z,24.60
2023-02-23T02:58:44.605Z,24.70
2023-02-23T03:01:09.843Z,24.70
2023-02-23T03:03:51.604Z,24.70
2023-02-23T03:06:16.093Z,24.70
2023-02-23T03:08:43.698Z,24.70
2023-02-23T03:11:16.693Z,24.90
2023-02-23T03:13:53.049Z,25.00
2023-02-23T03:16:33.206Z,25.10
2023-02-23T03:19:18.633Z,25.10
2023-02-23T03:21:47.526Z,24.90
2023-02-23T03:24:20.101Z,25.10
2023-02-23T03:26:55.908Z,25.20
2023-02-23T03:29:28.437Z,25.30
2023-02-23T03:32:00.487Z,25.40
2023-02-23T03:34:30.903Z,25.60
2023-02-23T03:36:58.994Z,25.60
2023-02-23T03:39:30.700Z,25.60
2023-02-23T03:42:00.169Z,25.70
2023-02-23T03:44:29.199Z,25.70
2023-02-23T03:46:55.030Z,25.80
2023-02-23T03:49:22.021Z,25.80
2023-02-23T03:51:47.628Z,26.00
2023-02-23T03:54:13.762Z,26.10
2023-02-23T03:56:40.753Z,26.10
2023-02-23T03:59:10.929Z,26.30
2023-02-23T04:01:38.010Z,26.30
2023-02-23T04:04:04.142Z,26.40
2023-02-23T04:06:31.188Z,26.40
2023-02-23T04:08:57.670Z,26.60
2023-02-23T04:11:29.895Z,26.70
2023-02-23T04:13:38.816Z,26.80
2023-02-23T04:15:53.007Z,26.90
2023-02-23T04:18:00.599Z,26.80
2023-02-23T04:20:09.218Z,26.80
2023-02-23T04:22:16.497Z,26.90
2023-02-23T04:24:23.884Z,26.90
2023-02-23T04:26:31.066Z,26.90
2023-02-23T04:28:38.097Z,26.90
2023-02-23T04:30:47.140Z,27.00
2023-02-23T04:32:54.096Z,27.10
2023-02-23T04:35:01.696Z,27.20
2023-02-23T04:37:08.716Z,27.30
2023-02-23T04:39:16.364Z,27.30
2023-02-23T04:41:23.339Z,27.50
2023-02-23T04:43:30.673Z,27.60
2023-02-23T04:45:37.817Z,27.60
2023-02-23T04:47:46.694Z,27.70
2023-02-23T04:49:53.601Z,27.80
2023-02-23T04:52:00.938Z,27.90
2023-02-23T04:54:08.119Z,28.00
2023-02-23T04:56:15.249Z,27.90
2023-02-23T04:58:22.122Z,27.80
2023-02-23T05:00:30.474Z,27.70
2023-02-23T05:02:37.475Z,27.70
2023-02-23T05:04:46.475Z,27.80
2023-02-23T05:06:53.665Z,27.90
2023-02-23T05:09:01.111Z,28.00
2023-02-23T05:11:09.776Z,28.10
2023-02-23T05:13:17.373Z,28.20
2023-02-23T05:15:24.293Z,28.40
2023-02-23T05:17:31.508Z,28.50
2023-02-23T05:19:38.548Z,28.60
2023-02-23T05:21:47.572Z,28.70
2023-02-23T05:23:54.752Z,28.70
2023-02-23T05:26:07.364Z,28.80
2023-02-23T05:28:14.360Z,28.80
2023-02-23T05:30:21.982Z,28.80
2023-02-23T05:32:28.976Z,28.90
2023-02-23T05:34:36.398Z,28.90
2023-02-23T05:36:43.268Z,29.00
2023-02-23T05:38:52.451Z,29.10
2023-02-23T05:40:59.320Z,29.10
2023-02-23T05:43:06.399Z,29.10
2023-02-23T05:45:13.476Z,29.20
2023-02-23T05:47:20.815Z,29.20
2023-02-23T05:49:27.843Z,29.20
2023-02-23T05:51:37.277Z,29.30
2023-02-23T05:53:44.661Z,29.40
2023-02-23T05:55:53.738Z,29.40
2023-02-23T05:58:00.713Z,29.50
2023-02-23T06:00:10.051Z,29.60
2023-02-23T06:02:16.989Z,29.60
2023-02-23T06:04:24.363Z,29.60
2023-02-23T06:06:31.544Z,29.70
2023-02-23T06:08:38.723Z,29.80
2023-02-23T06:10:45.602Z,29.80
2023-02-23T06:12:54.419Z,29.90
2023-02-23T06:15:01.814Z,29.90
2023-02-23T06:17:09.350Z,29.90
2023-02-23T06:19:16.290Z,30.00
2023-02-23T06:21:23.967Z,30.00
2023-02-23T06:23:31.508Z,30.10
2023-02-23T06:25:38.943Z,30.00
2023-02-23T06:27:46.590Z,30.00
2023-02-23T06:29:55.713Z,30.00
2023-02-23T06:32:02.932Z,30.10
2023-02-23T06:34:10.284Z,30.20
2023-02-23T06:36:17.674Z,30.20
2023-02-23T06:38:27.153Z,30.30
2023-02-23T06:40:34.077Z,30.40
2023-02-23T06:42:41.568Z,30.30
2023-02-23T06:44:48.597Z,30.20
2023-02-23T06:46:57.746Z,30.10
2023-02-23T06:49:04.700Z,30.00
2023-02-23T06:51:11.934Z,30.10
2023-02-23T06:53:19.371Z,30.20
2023-02-23T06:55:26.809Z,30.30
2023-02-23T06:57:33.784Z,30.30
2023-02-23T06:59:41.067Z,30.30
2023-02-23T07:01:48.052Z,30.30
2023-02-23T07:03:57.145Z,30.30
2023-02-23T07:06:05.784Z,30.40
2023-02-23T07:08:12.862Z,30.30
2023-02-23T07:10:20.657Z,30.30
2023-02-23T07:12:27.945Z,30.30
2023-02-23T07:14:35.378Z,30.30
2023-02-23T07:16:43.037Z,30.40
2023-02-23T07:18:50.051Z,30.50
2023-02-23T07:20:59.049Z,30.60
2023-02-23T07:23:05.998Z,30.70
2023-02-23T07:25:13.750Z,30.50
2023-02-23T07:27:20.622Z,30.40
2023-02-23T07:29:29.234Z,30.40
2023-02-23T07:31:36.232Z,30.40
2023-02-23T07:33:43.440Z,30.40
2023-02-23T07:35:50.318Z,30.50
2023-02-23T07:37:59.395Z,30.60
2023-02-23T07:40:07.039Z,30.50
2023-02-23T07:42:14.270Z,30.50
2023-02-23T07:44:21.198Z,30.60
2023-02-23T07:46:28.640Z,30.70
2023-02-23T07:48:36.125Z,30.70
2023-02-23T07:50:44.449Z,30.50
2023-02-23T07:52:51.736Z,30.40
2023-02-23T07:55:00.589Z,30.40
2023-02-23T07:57:07.469Z,30.40
2023-02-23T07:59:15.271Z,30.40
2023-02-23T08:01:22.499Z,30.50
2023-02-23T08:03:29.931Z,30.50
2023-02-23T08:05:37.729Z,30.40
2023-02-23T08:07:45.065Z,30.40
2023-02-23T08:09:52.552Z,30.50
2023-02-23T08:12:01.534Z,30.50
2023-02-23T08:14:08.500Z,30.50
2023-02-23T08:16:17.440Z,30.50
2023-02-23T08:18:24.480Z,30.50
2023-02-23T08:20:33.324Z,30.40
2023-02-23T08:22:49.390Z,30.40
2023-02-23T08:24:57.061Z,30.40
2023-02-23T08:27:06.337Z,30.60
2023-02-23T08:29:13.932Z,30.70
2023-02-23T08:31:25.285Z,30.60
2023-02-23T08:33:33.283Z,30.60
2023-02-23T08:35:40.340Z,30.60
2023-02-23T08:37:48.083Z,30.70
2023-02-23T08:39:55.007Z,30.60
2023-02-23T08:42:03.982Z,30.60
2023-02-23T08:44:11.069Z,30.60
2023-02-23T08:46:21.235Z,30.50
2023-02-23T08:48:28.216Z,30.50
2023-02-23T08:50:35.367Z,30.60
2023-02-23T08:52:42.665Z,30.70
2023-02-23T08:54:50.241Z,30.80
2023-02-23T08:57:00.597Z,30.80
2023-02-23T08:59:09.685Z,30.70
2023-02-23T09:01:24.542Z,30.70
2023-02-23T09:03:32.960Z,30.70
2023-02-23T09:05:41.429Z,30.60
2023-02-23T09:07:50.225Z,30.60
2023-02-23T09:10:01.145Z,30.60
2023-02-23T09:12:08.787Z,30.60
2023-02-23T09:14:17.970Z,30.60
2023-02-23T09:16:25.095Z,30.70
2023-02-23T09:18:33.663Z,30.70
2023-02-23T09:20:42.075Z,30.70
2023-02-23T09:22:55.188Z,30.60
2023-02-23T09:25:02.475Z,30.50
2023-02-23T09:27:13.599Z,30.50
2023-02-23T09:29:22.674Z,30.50
2023-02-23T09:31:29.981Z,30.50
2023-02-23T09:33:37.402Z,30.50
2023-02-23T09:35:44.528Z,30.50
2023-02-23T09:37:52.886Z,30.50
2023-02-23T09:39:59.800Z,30.50
2023-02-23T09:42:23.279Z,30.50
2023-02-23T09:44:56.159Z,30.50
2023-02-23T09:47:13.900Z,30.50
2023-02-23T09:49:25.630Z,30.50
2023-02-23T09:51:36.027Z,30.40
2023-02-23T09:53:46.801Z,30.30
2023-02-23T09:55:56.542Z,30.20
2023-02-23T09:58:11.764Z,30.20
2023-02-23T10:00:26.369Z,30.20
2023-02-23T10:02:37.958Z,30.20
2023-02-23T10:04:49.666Z,30.10
2023-02-23T10:07:03.788Z,30.10
2023-02-23T10:09:22.134Z,30.10
2023-02-23T10:11:33.130Z,30.00
2023-02-23T10:13:51.705Z,30.00
2023-02-23T10:16:04.173Z,30.00
2023-02-23T10:18:33.221Z,30.00
2023-02-23T10:20:53.746Z,30.00
2023-02-23T10:23:06.565Z,30.00
2023-02-23T10:25:16.612Z,30.00
2023-02-23T10:27:26.096Z,30.00
2023-02-23T10:29:37.834Z,29.90
2023-02-23T10:31:50.584Z,29.80
2023-02-23T10:34:01.309Z,29.80
2023-02-23T10:36:19.709Z,29.70
2023-02-23T10:38:26.682Z,29.70
2023-02-23T10:40:37.445Z,29.60
2023-02-23T10:42:44.630Z,29.60
2023-02-23T10:44:52.786Z,29.50
2023-02-23T10:47:04.664Z,29.50
2023-02-23T10:49:23.582Z,29.40
2023-02-23T10:51:39.632Z,29.40
2023-02-23T10:53:46.858Z,29.30
2023-02-23T10:56:08.242Z,29.30
2023-02-23T10:58:19.650Z,29.20
2023-02-23T11:00:34.155Z,29.20
2023-02-23T11:02:43.843Z,29.20
2023-02-23T11:04:57.126Z,29.10
2023-02-23T11:07:24.407Z,29.00
2023-02-23T11:09:46.188Z,29.00
2023-02-23T11:12:01.565Z,28.90
2023-02-23T11:14:20.725Z,28.90
2023-02-23T11:16:30.005Z,28.80
2023-02-23T11:18:39.393Z,28.80
2023-02-23T11:20:47.185Z,28.80
2023-02-23T11:22:55.758Z,28.70
2023-02-23T11:25:17.782Z,28.60
2023-02-23T11:27:27.246Z,28.60
2023-02-23T11:29:37.880Z,28.50
2023-02-23T11:31:52.098Z,28.50
2023-02-23T11:34:01.968Z,28.50
2023-02-23T11:36:21.197Z,28.40
2023-02-23T11:38:29.800Z,28.30
2023-02-23T11:40:37.538Z,28.20
2023-02-23T11:42:56.344Z,28.10
2023-02-23T11:45:08.988Z,28.00
2023-02-23T11:47:21.817Z,27.80
2023-02-23T11:49:34.327Z,27.70
2023-02-23T11:51:43.307Z,27.70
2023-02-23T11:53:51.065Z,27.60
2023-02-23T11:56:03.718Z,27.60
2023-02-23T11:58:23.691Z,27.50
2023-02-23T12:00:31.841Z,27.40
2023-02-23T12:02:51.570Z,27.40
2023-02-23T12:05:10.758Z,27.30
2023-02-23T12:07:42.642Z,27.20
2023-02-23T12:09:52.692Z,27.10
2023-02-23T12:12:10.114Z,27.10
2023-02-23T12:14:28.925Z,27.00
2023-02-23T12:16:41.654Z,27.00
2023-02-23T12:18:56.035Z,27.00
2023-02-23T12:21:13.399Z,26.90
2023-02-23T12:23:25.716Z,26.90
2023-02-23T12:25:38.118Z,26.80
2023-02-23T12:27:48.772Z,26.80
2023-02-23T12:30:09.124Z,26.80
2023-02-23T12:32:21.308Z,26.80
2023-02-23T12:34:34.068Z,26.70
2023-02-23T12:36:46.791Z,26.70
2023-02-23T12:38:59.391Z,26.60
2023-02-23T12:41:12.819Z,26.60
2023-02-23T12:43:26.141Z,26.50
2023-02-23T12:45:39.184Z,26.40
2023-02-23T12:47:52.534Z,26.40
2023-02-23T12:50:13.830Z,26.40
2023-02-23T12:52:27.127Z,26.30
2023-02-23T12:54:35.992Z,26.30
2023-02-23T12:57:05.189Z,26.30
2023-02-23T12:59:34.340Z,26.20
2023-02-23T13:01:45.977Z,26.20
2023-02-23T13:04:10.781Z,26.10
2023-02-23T13:06:26.044Z,26.10
2023-02-23T13:08:49.765Z,26.10
2023-02-23T13:11:07.543Z,26.00
2023-02-23T13:13:25.745Z,26.10
2023-02-23T13:15:47.764Z,26.00
2023-02-23T13:18:02.651Z,25.90
2023-02-23T13:20:19.237Z,25.90
2023-02-23T13:22:35.527Z,25.90
2023-02-23T13:24:49.364Z,25.80
2023-02-23T13:27:02.894Z,25.80
2023-02-23T13:29:25.651Z,25.70
2023-02-23T13:31:36.316Z,25.70
2023-02-23T13:33:44.610Z,25.60
2023-02-23T13:35:51.945Z,25.50
2023-02-23T13:38:04.975Z,25.50
2023-02-23T13:40:31.205Z,25.40
2023-02-23T13:42:48.515Z,25.30
2023-02-23T13:45:02.089Z,25.30
2023-02-23T13:47:17.820Z,25.20
2023-02-23T13:49:37.700Z,25.20
2023-02-23T13:51:49.849Z,25.10
2023-02-23T13:54:05.327Z,25.10
2023-02-23T13:56:18.653Z,25.00
2023-02-23T13:58:33.006Z,24.90
2023-02-23T14:00:40.030Z,24.80
2023-02-23T14:02:49.511Z,24.80
2023-02-23T14:04:59.922Z,24.80
2023-02-23T14:07:19.901Z,24.80
2023-02-23T14:09:33.024Z,24.80
2023-02-23T14:11:52.287Z,24.80
2023-02-23T14:14:03.670Z,24.70
2023-02-23T14:16:17.590Z,24.60
2023-02-23T14:18:35.954Z,24.50
2023-02-23T14:20:58.253Z,24.50
2023-02-23T14:23:22.531Z,24.40
2023-02-23T14:25:48.753Z,24.40
2023-02-23T14:28:07.760Z,24.40
2023-02-23T14:30:26.466Z,24.30
2023-02-23T14:32:40.700Z,24.30
2023-02-23T14:34:51.233Z,24.20
2023-02-23T14:36:58.557Z,24.20
2023-02-23T14:39:10.279Z,24.20
2023-02-23T14:41:17.565Z,24.30
2023-02-23T14:43:47.394Z,24.20
2023-02-23T14:45:58.907Z,24.20
2023-02-23T14:48:09.379Z,24.10
2023-02-23T14:50:21.376Z,24.10
2023-02-23T14:52:30.842Z,24.00
2023-02-23T14:54:39.628Z,24.00
2023-02-23T14:56:53.985Z,24.00
2023-02-23T14:59:03.049Z,24.00
2023-02-23T15:01:09.975Z,23.90
2023-02-23T15:03:17.156Z,24.00
2023-02-23T15:05:28.487Z,23.90
2023-02-23T15:07:39.968Z,23.90
2023-02-23T15:09:48.192Z,23.90
2023-02-23T15:11:56.787Z,23.90
2023-02-23T15:14:07.381Z,23.90
2023-02-23T15:16:22.724Z,23.80
2023-02-23T15:18:34.102Z,23.80
2023-02-23T15:20:41.542Z,23.80
2023-02-23T15:22:51.543Z,23.70
2023-02-23T15:25:02.046Z,23.70
2023-02-23T15:27:08.974Z,23.70
2023-02-23T15:29:20.046Z,23.70
2023-02-23T15:31:27.028Z,23.70
2023-02-23T15:33:34.615Z,23.60
2023-02-23T15:35:48.515Z,23.60
2023-02-23T15:38:05.868Z,23.60
2023-02-23T15:40:24.426Z,23.60
2023-02-23T15:42:37.507Z,23.60
2023-02-23T15:44:46.468Z,23.50
2023-02-23T15:46:57.538Z,23.50
2023-02-23T15:49:06.410Z,23.50
2023-02-23T15:51:27.495Z,23.50
2023-02-23T15:53:39.360Z,23.50
2023-02-23T15:55:47.362Z,23.50
2023-02-23T15:57:59.922Z,23.50
2023-02-23T16:00:20.630Z,23.50
2023-02-23T16:02:28.981Z,23.50
2023-02-23T16:04:43.279Z,23.50
2023-02-23T16:06:55.153Z,23.50
2023-02-23T16:09:04.191Z,23.60
2023-02-23T16:11:16.092Z,23.50
2023-02-23T16:13:25.269Z,23.50
2023-02-23T16:15:38.696Z,23.50
2023-02-23T16:17:48.848Z,23.50
2023-02-23T16:19:57.655Z,23.40
2023-02-23T16:22:04.592Z,23.40
2023-02-23T16:24:23.243Z,23.30
2023-02-23T16:26:34.060Z,23.30
2023-02-23T16:28:46.442Z,23.30
2023-02-23T16:31:00.188Z,23.30
2023-02-23T16:33:13.978Z,23.20
2023-02-23T16:35:22.706Z,23.20
2023-02-23T16:37:29.892Z,23.20
2023-02-23T16:39:36.760Z,23.20
2023-02-23T16:41:44.151Z,23.20
2023-02-23T16:43:52.920Z,23.20
2023-02-23T16:46:02.204Z,23.10
2023-02-23T16:48:12.662Z,23.00
2023-02-23T16:50:21.995Z,23.00
2023-02-23T16:52:28.963Z,22.90
2023-02-23T16:54:36.147Z,22.90
2023-02-23T16:56:43.635Z,22.90
2023-02-23T16:58:54.810Z,22.90
2023-02-23T17:01:03.639Z,22.90
2023-02-23T17:03:16.474Z,22.90
2023-02-23T17:05:26.286Z,22.90
2023-02-23T17:07:33.215Z,22.80
2023-02-23T17:09:40.396Z,22.80
2023-02-23T17:11:48.038Z,22.80
2023-02-23T17:13:55.228Z,22.70
2023-02-23T17:16:05.525Z,22.70
2023-02-23T17:18:12.808Z,22.70
2023-02-23T17:20:22.500Z,22.70
2023-02-23T17:22:30.141Z,22.70
2023-02-23T17:24:37.373Z,22.60
2023-02-23T17:26:44.553Z,22.60
2023-02-23T17:28:52.295Z,22.60
2023-02-23T17:30:59.259Z,22.60
2023-02-23T17:33:09.591Z,22.60
2023-02-23T17:35:16.658Z,22.60
2023-02-23T17:37:23.842Z,22.60
2023-02-23T17:39:30.813Z,22.60
2023-02-23T17:41:38.045Z,22.60
2023-02-23T17:43:45.022Z,22.60
2023-02-23T17:45:52.610Z,22.60
2023-02-23T17:48:00.511Z,22.60
2023-02-23T17:50:10.662Z,22.60
2023-02-23T17:52:17.745Z,22.60
2023-02-23T17:54:25.076Z,22.40
2023-02-23T17:56:32.653Z,22.20
2023-02-23T17:58:40.469Z,22.10
2023-02-23T18:00:47.390Z,22.10
2023-02-23T18:02:54.599Z,22.10
2023-02-23T18:05:01.548Z,22.10
2023-02-23T18:07:10.470Z,22.20
2023-02-23T18:09:17.721Z,22.20
2023-02-23T18:11:24.996Z,22.10
2023-02-23T18:13:34.350Z,22.20
2023-02-23T18:15:41.307Z,22.20
2023-02-23T18:17:48.630Z,22.20
2023-02-23T18:19:55.866Z,22.20
2023-02-23T18:22:03.044Z,22.10
2023-02-23T18:24:11.918Z,22.10
2023-02-23T18:26:21.152Z,22.10
2023-02-23T18:28:28.002Z,22.10
2023-02-23T18:30:35.099Z,22.10
2023-02-23T18:32:42.233Z,22.10
2023-02-23T18:34:49.568Z,22.10
2023-02-23T18:36:56.600Z,22.10
2023-02-23T18:39:04.497Z,22.00
2023-02-23T18:41:13.725Z,22.10
2023-02-23T18:43:20.902Z,22.10
2023-02-23T18:45:27.934Z,22.10
2023-02-23T18:47:35.218Z,22.10
2023-02-23T18:49:42.466Z,22.00
2023-02-23T18:51:50.044Z,22.00
2023-02-23T18:53:57.428Z,22.00
2023-02-23T18:56:08.859Z,22.00
2023-02-23T18:58:17.526Z,21.90
2023-02-23T19:00:25.599Z,21.90
2023-02-23T19:02:32.657Z,21.80
2023-02-23T19:04:40.277Z,21.80
2023-02-23T19:06:49.224Z,21.70
2023-02-23T19:08:58.346Z,21.70
2023-02-23T19:11:05.586Z,21.70
2023-02-23T19:13:12.760Z,21.70
2023-02-23T19:15:21.636Z,21.80
2023-02-23T19:17:29.581Z,21.70
2023-02-23T19:19:36.663Z,21.80
2023-02-23T19:21:44.666Z,21.70
2023-02-23T19:23:51.952Z,21.70
2023-02-23T19:25:59.946Z,21.80
2023-02-23T19:28:06.981Z,21.80
2023-02-23T19:30:15.899Z,21.80
2023-02-23T19:32:24.632Z,21.80
2023-02-23T19:34:32.512Z,21.80
2023-02-23T19:36:39.492Z,21.80
2023-02-23T19:38:46.620Z,21.80
2023-02-23T19:40:53.853Z,21.80
2023-02-23T19:43:00.936Z,21.70
2023-02-23T19:45:08.784Z,21.70
2023-02-23T19:47:16.124Z,21.60
2023-02-23T19:49:25.045Z,21.50
2023-02-23T19:51:32.092Z,21.60
2023-02-23T19:53:39.300Z,21.60
2023-02-23T19:55:46.228Z,21.50
2023-02-23T19:57:54.904Z,21.50
2023-02-23T20:00:01.921Z,21.40
2023-02-23T20:02:15.801Z,21.40
2023-02-23T20:04:24.479Z,21.50
2023-02-23T20:06:33.298Z,21.50
2023-02-23T20:08:40.222Z,21.40
2023-02-23T20:10:47.865Z,21.40
2023-02-23T20:12:55.507Z,21.40
2023-02-23T20:15:02.891Z,21.40
2023-02-23T20:17:10.076Z,21.40
2023-02-23T20:19:17.360Z,21.40
2023-02-23T20:21:27.657Z,21.40
2023-02-23T20:23:35.012Z,21.40
2023-02-23T20:25:45.197Z,21.40
2023-02-23T20:27:53.181Z,21.40
2023-02-23T20:30:01.252Z,21.40
2023-02-23T20:32:09.415Z,21.30
2023-02-23T20:34:16.430Z,21.30
2023-02-23T20:36:26.582Z,21.30
2023-02-23T20:38:33.558Z,21.30
2023-02-23T20:40:41.206Z,21.20
2023-02-23T20:42:48.861Z,21.20
2023-02-23T20:44:56.487Z,21.20
2023-02-23T20:47:03.465Z,21.10
2023-02-23T20:49:12.798Z,21.10
2023-02-23T20:51:20.905Z,21.10
2023-02-23T20:53:31.360Z,21.10
2023-02-23T20:55:38.338Z,21.10
2023-02-23T20:57:47.146Z,21.10
2023-02-23T20:59:54.493Z,21.10
2023-02-23T21:02:02.751Z,21.10
2023-02-23T21:04:10.238Z,21.10
2023-02-23T21:06:17.833Z,21.20
2023-02-23T21:08:24.860Z,21.10
2023-02-23T21:10:37.009Z,21.10
2023-02-23T21:12:44.038Z,21.10
2023-02-23T21:14:52.291Z,21.00
2023-02-23T21:16:59.321Z,21.00
2023-02-23T21:19:09.425Z,21.00
2023-02-23T21:21:17.733Z,21.00
2023-02-23T21:23:24.966Z,21.00
2023-02-23T21:25:34.246Z,21.00
2023-02-23T21:27:41.933Z,21.00
2023-02-23T21:29:49.124Z,21.00
2023-02-23T21:31:56.453Z,20.90
2023-02-23T21:34:06.604Z,20.90
2023-02-23T21:36:14.862Z,20.90
2023-02-23T21:38:24.974Z,20.90
2023-02-23T21:40:34.294Z,20.90
2023-02-23T21:42:41.885Z,20.90
2023-02-23T21:44:49.376Z,20.90
2023-02-23T21:46:56.252Z,20.90
2023-02-23T21:49:10.602Z,20.90
2023-02-23T21:51:19.001Z,20.90
2023-02-23T21:53:26.603Z,20.90
2023-02-23T21:55:36.956Z,20.80
2023-02-23T21:57:44.240Z,20.90
2023-02-23T21:59:51.268Z,20.80
2023-02-23T22:01:58.467Z,20.80
2023-02-23T22:04:05.754Z,20.70
2023-02-23T22:06:13.018Z,20.80
2023-02-23T22:08:20.102Z,20.80
2023-02-23T22:10:28.302Z,20.70
2023-02-23T22:12:37.327Z,20.70
2023-02-23T22:14:44.561Z,20.70
2023-02-23T22:16:51.947Z,20.70
2023-02-23T22:18:59.221Z,20.70
2023-02-23T22:21:06.412Z,20.60
2023-02-23T22:23:14.976Z,20.60
2023-02-23T22:25:22.986Z,20.60
2023-02-23T22:27:30.364Z,20.60
2023-02-23T22:29:39.288Z,20.60
2023-02-23T22:31:46.761Z,20.60
2023-02-23T22:33:53.853Z,20.60
2023-02-23T22:36:03.593Z,20.60
2023-02-23T22:38:10.519Z,20.60
2023-02-23T22:40:18.377Z,20.60
2023-02-23T22:42:25.397Z,20.70
2023-02-23T22:44:32.577Z,20.60
2023-02-23T22:46:41.588Z,20.50
2023-02-23T22:48:49.552Z,20.50
2023-02-23T22:50:56.425Z,20.50
2023-02-23T22:53:04.271Z,20.50
2023-02-23T22:55:12.024Z,20.50
2023-02-23T22:57:19.302Z,20.40
2023-02-23T22:59:26.159Z,20.40
2023-02-23T23:01:33.209Z,20.40
2023-02-23T23:03:43.406Z,20.40
2023-02-23T23:05:53.351Z,20.40
2023-02-23T23:08:00.479Z,20.40
2023-02-23T23:10:10.272Z,20.40
2023-02-23T23:12:19.039Z,20.40
2023-02-23T23:14:26.477Z,20.30
2023-02-23T23:16:34.681Z,20.30
2023-02-23T23:18:44.630Z,20.30
2023-02-23T23:20:51.912Z,20.30
2023-02-23T23:22:59.347Z,20.30
2023-02-23T23:25:12.163Z,20.30
2023-02-23T23:27:20.842Z,20.30
2023-02-23T23:29:29.242Z,20.30
2023-02-23T23:31:37.694Z,20.30
2023-02-23T23:33:50.360Z,20.30
2023-02-23T23:35:57.554Z,20.30
2023-02-23T23:38:04.421Z,20.30
2023-02-23T23:40:16.416Z,20.30
2023-02-23T23:42:23.341Z,20.20
2023-02-23T23:44:31.055Z,20.20
2023-02-23T23:46:39.346Z,20.20
2023-02-23T23:48:48.730Z,20.20
2023-02-23T23:50:57.245Z,20.30
2023-02-23T23:53:05.559Z,20.20
2023-02-23T23:55:13.446Z,20.30
2023-02-23T23:57:20.679Z,20.30
2023-02-23T23:59:28.829Z,20.30
